sensor_id;sensor_type;location;lat;lon;timestamp;temperature;humidity
34766;DHT22;20984;43.508;1.504;2023-01-15T00:01:48;8.60;99.90
34766;DHT22;20984;43.508;1.504;2023-01-15T00:04:14;8.60;99.90
34766;DHT22;20984;43.508;1.504;2023-01-15T00:06:41;8.60;99.90
34766;DHT22;20984;43.508;1.504;2023-01-15T00:09:10;8.60;99.90
34766;DHT22;20984;43.508;1.504;2023-01-15T00:11:37;8.60;99.90
34766;DHT22;20984;43.508;1.504;2023-01-15T00:14:03;8.70;99.90
34766;DHT22;20984;43.508;1.504;2023-01-15T00:16:29;8.70;99.90
34766;DHT22;20984;43.508;1.504;2023-01-15T00:18:59;8.60;99.90
34766;DHT22;20984;43.508;1.504;2023-01-15T00:21:27;8.60;99.90
34766;DHT22;20984;43.508;1.504;2023-01-15T00:23:53;8.60;99.90
34766;DHT22;20984;43.508;1.504;2023-01-15T00:26:38;8.60;99.90
34766;DHT22;20984;43.508;1.504;2023-01-15T00:29:23;8.60;99.90
34766;DHT22;20984;43.508;1.504;2023-01-15T00:32:04;8.60;99.90
34766;DHT22;20984;43.508;1.504;2023-01-15T00:34:30;8.60;99.90
34766;DHT22;20984;43.508;1.504;2023-01-15T00:36:56;8.70;99.90
34766;DHT22;20984;43.508;1.504;2023-01-15T00:39:22;8.60;99.90
34766;DHT22;20984;43.508;1.504;2023-01-15T00:41:51;8.60;99.90
34766;DHT22;20984;43.508;1.504;2023-01-15T00:44:18;8.60;99.90
34766;DHT22;20984;43.508;1.504;2023-01-15T00:46:44;8.60;99.90
34766;DHT22;20984;43.508;1.504;2023-01-15T00:49:10;8.70;99.90
34766;DHT22;20984;43.508;1.504;2023-01-15T00:51:36;8.70;99.90
34766;DHT22;20984;43.508;1.504;2023-01-15T00:54:01;8.60;99.90
34766;DHT22;20984;43.508;1.504;2023-01-15T00:56:27;8.60;99.90
34766;DHT22;20984;43.508;1.504;2023-01-15T00:58:53;8.70;99.90
34766;DHT22;20984;43.508;1.504;2023-01-15T01:01:19;8.70;99.90
34766;DHT22;20984;43.508;1.504;2023-01-15T01:03:45;8.60;99.90
34766;DHT22;20984;43.508;1.504;2023-01-15T01:06:14;8.60;99.90
34766;DHT22;20984;43.508;1.504;2023-01-15T01:08:41;8.60;99.90
34766;DHT22;20984;43.508;1.504;2023-01-15T01:11:10;8.60;99.90
34766;DHT22;20984;43.508;1.504;2023-01-15T01:13:37;8.60;99.90
34766;DHT22;20984;43.508;1.504;2023-01-15T01:16:04;8.60;99.90
34766;DHT22;20984;43.508;1.504;2023-01-15T01:18:41;8.60;99.90
34766;DHT22;20984;43.508;1.504;2023-01-15T01:21:06;8.60;99.90
34766;DHT22;20984;43.508;1.504;2023-01-15T01:23:32;8.60;99.90
34766;DHT22;20984;43.508;1.504;2023-01-15T01:25:58;8.50;99.90
34766;DHT22;20984;43.508;1.504;2023-01-15T01:28:24;8.50;99.90
34766;DHT22;20984;43.508;1.504;2023-01-15T01:30:49;8.50;99.90
34766;DHT22;20984;43.508;1.504;2023-01-15T01:33:15;8.50;99.90
34766;DHT22;20984;43.508;1.504;2023-01-15T01:35:47;8.60;99.90
34766;DHT22;20984;43.508;1.504;2023-01-15T01:38:13;8.50;99.90
34766;DHT22;20984;43.508;1.504;2023-01-15T01:40:38;8.60;99.90
34766;DHT22;20984;43.508;1.504;2023-01-15T01:43:20;8.50;99.90
34766;DHT22;20984;43.508;1.504;2023-01-15T01:45:46;8.40;99.90
34766;DHT22;20984;43.508;1.504;2023-01-15T01:48:13;8.50;99.90
34766;DHT22;20984;43.508;1.504;2023-01-15T01:50:40;8.50;99.90
34766;DHT22;20984;43.508;1.504;2023-01-15T01:53:11;8.50;99.90
34766;DHT22;20984;43.508;1.504;2023-01-15T01:55:39;8.60;99.90
34766;DHT22;20984;43.508;1.504;2023-01-15T01:58:07;8.50;99.90
34766;DHT22;20984;43.508;1.504;2023-01-15T02:00:35;8.50;99.90
34766;DHT22;20984;43.508;1.504;2023-01-15T02:03:05;8.50;99.90
34766;DHT22;20984;43.508;1.504;2023-01-15T02:05:38;8.50;99.90
34766;DHT22;20984;43.508;1.504;2023-01-15T02:08:06;8.40;99.90
34766;DHT22;20984;43.508;1.504;2023-01-15T02:10:32;8.40;99.90
34766;DHT22;20984;43.508;1.504;2023-01-15T02:13:16;8.30;99.90
34766;DHT22;20984;43.508;1.504;2023-01-15T02:21:49;8.10;99.90
34766;DHT22;20984;43.508;1.504;2023-01-15T02:27:17;7.90;99.90
34766;DHT22;20984;43.508;1.504;2023-01-15T02:30:09;7.90;99.90
34766;DHT22;20984;43.508;1.504;2023-01-15T02:32:55;8.00;99.90
34766;DHT22;20984;43.508;1.504;2023-01-15T02:35:28;7.90;99.90
34766;DHT22;20984;43.508;1.504;2023-01-15T02:37:58;7.90;99.90
34766;DHT22;20984;43.508;1.504;2023-01-15T02:40:25;8.00;99.90
34766;DHT22;20984;43.508;1.504;2023-01-15T02:42:52;8.00;99.90
34766;DHT22;20984;43.508;1.504;2023-01-15T02:45:22;8.10;99.90
34766;DHT22;20984;43.508;1.504;2023-01-15T02:47:53;8.10;99.90
34766;DHT22;20984;43.508;1.504;2023-01-15T02:50:25;8.10;99.90
34766;DHT22;20984;43.508;1.504;2023-01-15T02:52:57;8.10;99.90
34766;DHT22;20984;43.508;1.504;2023-01-15T02:55:27;8.00;99.90
34766;DHT22;20984;43.508;1.504;2023-01-15T02:57:56;8.00;99.90
34766;DHT22;20984;43.508;1.504;2023-01-15T03:00:25;7.90;99.90
34766;DHT22;20984;43.508;1.504;2023-01-15T03:03:17;7.90;99.90
34766;DHT22;20984;43.508;1.504;2023-01-15T03:08:56;8.00;99.90
34766;DHT22;20984;43.508;1.504;2023-01-15T03:11:22;8.00;99.90
34766;DHT22;20984;43.508;1.504;2023-01-15T03:16:34;8.00;99.90
34766;DHT22;20984;43.508;1.504;2023-01-15T03:19:37;8.00;99.90
34766;DHT22;20984;43.508;1.504;2023-01-15T03:24:47;8.00;99.90
34766;DHT22;20984;43.508;1.504;2023-01-15T03:27:14;8.00;99.90
34766;DHT22;20984;43.508;1.504;2023-01-15T03:29:49;8.10;99.90
34766;DHT22;20984;43.508;1.504;2023-01-15T03:32:16;8.00;99.90
34766;DHT22;20984;43.508;1.504;2023-01-15T03:34:46;8.10;99.90
34766;DHT22;20984;43.508;1.504;2023-01-15T03:37:13;8.00;99.90
34766;DHT22;20984;43.508;1.504;2023-01-15T03:39:40;8.00;99.90
34766;DHT22;20984;43.508;1.504;2023-01-15T03:42:09;8.00;99.90
34766;DHT22;20984;43.508;1.504;2023-01-15T03:45:14;8.10;99.90
34766;DHT22;20984;43.508;1.504;2023-01-15T03:48:01;8.10;99.90
34766;DHT22;20984;43.508;1.504;2023-01-15T03:50:52;8.10;99.90
34766;DHT22;20984;43.508;1.504;2023-01-15T03:53:25;8.10;99.90
34766;DHT22;20984;43.508;1.504;2023-01-15T03:56:11;8.10;99.90
34766;DHT22;20984;43.508;1.504;2023-01-15T03:58:46;8.10;99.90
34766;DHT22;20984;43.508;1.504;2023-01-15T04:01:21;8.10;99.90
34766;DHT22;20984;43.508;1.504;2023-01-15T04:03:51;8.10;99.90
34766;DHT22;20984;43.508;1.504;2023-01-15T04:06:17;8.20;99.90
34766;DHT22;20984;43.508;1.504;2023-01-15T04:08:45;8.10;99.90
34766;DHT22;20984;43.508;1.504;2023-01-15T04:11:11;8.10;99.90
34766;DHT22;20984;43.508;1.504;2023-01-15T04:13:37;8.00;99.90
34766;DHT22;20984;43.508;1.504;2023-01-15T04:16:04;7.90;99.90
34766;DHT22;20984;43.508;1.504;2023-01-15T04:18:29;7.90;99.90
34766;DHT22;20984;43.508;1.504;2023-01-15T04:20:56;7.80;99.90
34766;DHT22;20984;43.508;1.504;2023-01-15T04:23:22;7.70;99.90
34766;DHT22;20984;43.508;1.504;2023-01-15T04:25:48;7.60;99.90
34766;DHT22;20984;43.508;1.504;2023-01-15T04:28:14;7.50;99.90
34766;DHT22;20984;43.508;1.504;2023-01-15T04:30:39;7.40;99.90
34766;DHT22;20984;43.508;1.504;2023-01-15T04:33:07;7.40;99.90
34766;DHT22;20984;43.508;1.504;2023-01-15T04:35:33;7.40;99.90
34766;DHT22;20984;43.508;1.504;2023-01-15T04:38:00;7.30;99.90
34766;DHT22;20984;43.508;1.504;2023-01-15T04:40:26;7.20;99.90
34766;DHT22;20984;43.508;1.504;2023-01-15T04:43:12;7.10;99.90
34766;DHT22;20984;43.508;1.504;2023-01-15T04:45:56;7.10;99.90
34766;DHT22;20984;43.508;1.504;2023-01-15T04:48:22;7.00;99.90
34766;DHT22;20984;43.508;1.504;2023-01-15T04:50:48;7.10;99.90
34766;DHT22;20984;43.508;1.504;2023-01-15T04:53:13;7.10;99.90
34766;DHT22;20984;43.508;1.504;2023-01-15T04:55:39;7.00;99.90
34766;DHT22;20984;43.508;1.504;2023-01-15T04:58:05;7.00;99.90
34766;DHT22;20984;43.508;1.504;2023-01-15T05:00:31;7.00;99.90
34766;DHT22;20984;43.508;1.504;2023-01-15T05:02:57;7.00;99.90
34766;DHT22;20984;43.508;1.504;2023-01-15T05:05:22;6.90;99.90
34766;DHT22;20984;43.508;1.504;2023-01-15T05:07:48;6.90;99.90
34766;DHT22;20984;43.508;1.504;2023-01-15T05:10:14;6.90;99.90
34766;DHT22;20984;43.508;1.504;2023-01-15T05:12:40;6.90;99.90
34766;DHT22;20984;43.508;1.504;2023-01-15T05:15:06;6.90;99.90
34766;DHT22;20984;43.508;1.504;2023-01-15T05:17:32;7.00;99.90
34766;DHT22;20984;43.508;1.504;2023-01-15T05:19:58;7.00;99.90
34766;DHT22;20984;43.508;1.504;2023-01-15T05:22:24;7.00;99.90
34766;DHT22;20984;43.508;1.504;2023-01-15T05:24:50;6.90;99.90
34766;DHT22;20984;43.508;1.504;2023-01-15T05:27:16;7.00;99.90
34766;DHT22;20984;43.508;1.504;2023-01-15T05:29:42;6.90;99.90
34766;DHT22;20984;43.508;1.504;2023-01-15T05:32:07;6.90;99.90
34766;DHT22;20984;43.508;1.504;2023-01-15T05:34:33;6.70;99.90
34766;DHT22;20984;43.508;1.504;2023-01-15T05:36:59;6.60;99.90
34766;DHT22;20984;43.508;1.504;2023-01-15T05:39:24;6.50;99.90
34766;DHT22;20984;43.508;1.504;2023-01-15T05:41:50;6.50;99.90
34766;DHT22;20984;43.508;1.504;2023-01-15T05:44:26;6.30;99.90
34766;DHT22;20984;43.508;1.504;2023-01-15T05:46:55;6.30;99.90
34766;DHT22;20984;43.508;1.504;2023-01-15T05:49:23;6.20;99.90
34766;DHT22;20984;43.508;1.504;2023-01-15T05:51:50;6.20;99.90
34766;DHT22;20984;43.508;1.504;2023-01-15T05:54:20;6.10;99.90
34766;DHT22;20984;43.508;1.504;2023-01-15T05:56:46;6.10;99.90
34766;DHT22;20984;43.508;1.504;2023-01-15T05:59:14;6.10;99.90
34766;DHT22;20984;43.508;1.504;2023-01-15T06:01:40;6.10;99.90
34766;DHT22;20984;43.508;1.504;2023-01-15T06:04:06;6.10;99.90
34766;DHT22;20984;43.508;1.504;2023-01-15T06:06:32;6.10;99.90
34766;DHT22;20984;43.508;1.504;2023-01-15T06:08:58;6.00;99.90
34766;DHT22;20984;43.508;1.504;2023-01-15T06:11:24;6.00;99.90
34766;DHT22;20984;43.508;1.504;2023-01-15T06:13:50;6.00;99.90
34766;DHT22;20984;43.508;1.504;2023-01-15T06:16:16;6.10;99.90
34766;DHT22;20984;43.508;1.504;2023-01-15T06:18:43;6.10;99.90
34766;DHT22;20984;43.508;1.504;2023-01-15T06:21:10;6.10;99.90
34766;DHT22;20984;43.508;1.504;2023-01-15T06:23:37;6.20;99.90
34766;DHT22;20984;43.508;1.504;2023-01-15T06:26:05;6.30;99.90
34766;DHT22;20984;43.508;1.504;2023-01-15T06:28:31;6.30;99.90
34766;DHT22;20984;43.508;1.504;2023-01-15T06:30:57;6.50;99.90
34766;DHT22;20984;43.508;1.504;2023-01-15T06:33:23;6.60;99.90
34766;DHT22;20984;43.508;1.504;2023-01-15T06:35:49;6.70;99.90
34766;DHT22;20984;43.508;1.504;2023-01-15T06:38:15;6.80;99.90
34766;DHT22;20984;43.508;1.504;2023-01-15T06:40:41;7.30;99.90
34766;DHT22;20984;43.508;1.504;2023-01-15T06:43:11;7.70;99.90
34766;DHT22;20984;43.508;1.504;2023-01-15T06:45:55;8.10;99.90
34766;DHT22;20984;43.508;1.504;2023-01-15T06:48:51;8.50;99.90
34766;DHT22;20984;43.508;1.504;2023-01-15T06:51:16;8.90;99.90
34766;DHT22;20984;43.508;1.504;2023-01-15T06:53:44;9.10;99.90
34766;DHT22;20984;43.508;1.504;2023-01-15T06:56:14;9.20;99.90
34766;DHT22;20984;43.508;1.504;2023-01-15T06:58:43;9.30;99.90
34766;DHT22;20984;43.508;1.504;2023-01-15T07:01:13;9.30;99.90
34766;DHT22;20984;43.508;1.504;2023-01-15T07:03:40;9.40;99.90
34766;DHT22;20984;43.508;1.504;2023-01-15T07:06:11;9.40;99.90
34766;DHT22;20984;43.508;1.504;2023-01-15T07:08:37;9.30;99.90
34766;DHT22;20984;43.508;1.504;2023-01-15T07:11:05;9.20;99.90
34766;DHT22;20984;43.508;1.504;2023-01-15T07:13:31;9.10;99.90
34766;DHT22;20984;43.508;1.504;2023-01-15T07:15:58;8.90;99.90
34766;DHT22;20984;43.508;1.504;2023-01-15T07:18:25;8.80;99.90
34766;DHT22;20984;43.508;1.504;2023-01-15T07:20:55;8.70;99.90
34766;DHT22;20984;43.508;1.504;2023-01-15T07:23:23;8.60;99.90
34766;DHT22;20984;43.508;1.504;2023-01-15T07:25:51;8.60;99.90
34766;DHT22;20984;43.508;1.504;2023-01-15T07:28:17;8.60;99.90
34766;DHT22;20984;43.508;1.504;2023-01-15T07:30:43;8.60;99.90
34766;DHT22;20984;43.508;1.504;2023-01-15T07:33:08;8.70;99.90
34766;DHT22;20984;43.508;1.504;2023-01-15T07:35:34;8.70;99.90
34766;DHT22;20984;43.508;1.504;2023-01-15T07:38:01;8.60;99.90
34766;DHT22;20984;43.508;1.504;2023-01-15T07:40:27;8.60;99.90
34766;DHT22;20984;43.508;1.504;2023-01-15T07:42:53;8.50;99.90
34766;DHT22;20984;43.508;1.504;2023-01-15T07:45:41;8.50;99.90
34766;DHT22;20984;43.508;1.504;2023-01-15T07:48:27;8.40;99.90
34766;DHT22;20984;43.508;1.504;2023-01-15T07:51:11;8.30;99.90
34766;DHT22;20984;43.508;1.504;2023-01-15T07:53:36;8.20;99.90
34766;DHT22;20984;43.508;1.504;2023-01-15T07:56:02;8.20;99.90
34766;DHT22;20984;43.508;1.504;2023-01-15T07:58:28;8.10;99.90
34766;DHT22;20984;43.508;1.504;2023-01-15T08:00:54;8.10;99.90
34766;DHT22;20984;43.508;1.504;2023-01-15T08:03:19;8.00;99.90
34766;DHT22;20984;43.508;1.504;2023-01-15T08:05:45;8.00;99.90
34766;DHT22;20984;43.508;1.504;2023-01-15T08:08:17;8.00;99.90
34766;DHT22;20984;43.508;1.504;2023-01-15T08:10:43;8.00;99.90
34766;DHT22;20984;43.508;1.504;2023-01-15T08:13:28;8.00;99.90
34766;DHT22;20984;43.508;1.504;2023-01-15T08:16:12;8.00;99.90
34766;DHT22;20984;43.508;1.504;2023-01-15T08:18:38;8.00;99.90
34766;DHT22;20984;43.508;1.504;2023-01-15T08:21:04;8.00;99.90
34766;DHT22;20984;43.508;1.504;2023-01-15T08:23:30;8.00;99.90
34766;DHT22;20984;43.508;1.504;2023-01-15T08:25:59;8.00;99.90
34766;DHT22;20984;43.508;1.504;2023-01-15T08:28:25;8.00;99.90
34766;DHT22;20984;43.508;1.504;2023-01-15T08:30:51;8.10;99.90
34766;DHT22;20984;43.508;1.504;2023-01-15T08:33:17;8.10;99.90
34766;DHT22;20984;43.508;1.504;2023-01-15T08:35:43;8.10;99.90
34766;DHT22;20984;43.508;1.504;2023-01-15T08:38:08;8.10;99.90
34766;DHT22;20984;43.508;1.504;2023-01-15T08:40:35;8.10;99.90
34766;DHT22;20984;43.508;1.504;2023-01-15T08:43:21;8.10;99.90
34766;DHT22;20984;43.508;1.504;2023-01-15T08:45:46;8.10;99.90
34766;DHT22;20984;43.508;1.504;2023-01-15T08:48:12;8.10;99.90
34766;DHT22;20984;43.508;1.504;2023-01-15T08:50:38;8.10;99.90
34766;DHT22;20984;43.508;1.504;2023-01-15T08:53:03;8.10;99.90
34766;DHT22;20984;43.508;1.504;2023-01-15T08:55:29;8.10;99.90
34766;DHT22;20984;43.508;1.504;2023-01-15T08:57:55;8.10;99.90
34766;DHT22;20984;43.508;1.504;2023-01-15T09:00:21;8.10;99.90
34766;DHT22;20984;43.508;1.504;2023-01-15T09:02:46;8.20;99.90
34766;DHT22;20984;43.508;1.504;2023-01-15T09:05:12;8.20;99.90
34766;DHT22;20984;43.508;1.504;2023-01-15T09:07:38;8.20;99.90
34766;DHT22;20984;43.508;1.504;2023-01-15T09:10:04;8.30;99.90
34766;DHT22;20984;43.508;1.504;2023-01-15T09:12:30;8.30;99.90
34766;DHT22;20984;43.508;1.504;2023-01-15T09:14:55;8.40;99.90
34766;DHT22;20984;43.508;1.504;2023-01-15T09:17:21;8.40;99.90
34766;DHT22;20984;43.508;1.504;2023-01-15T09:19:47;8.40;99.90
34766;DHT22;20984;43.508;1.504;2023-01-15T09:22:12;8.40;99.90
34766;DHT22;20984;43.508;1.504;2023-01-15T09:24:38;8.30;99.90
34766;DHT22;20984;43.508;1.504;2023-01-15T09:27:04;8.30;99.90
34766;DHT22;20984;43.508;1.504;2023-01-15T09:29:29;8.30;99.90
34766;DHT22;20984;43.508;1.504;2023-01-15T09:31:55;8.40;99.90
34766;DHT22;20984;43.508;1.504;2023-01-15T09:34:24;8.40;99.90
34766;DHT22;20984;43.508;1.504;2023-01-15T09:36:49;8.40;99.90
34766;DHT22;20984;43.508;1.504;2023-01-15T09:39:15;8.50;99.90
34766;DHT22;20984;43.508;1.504;2023-01-15T09:41:48;8.60;99.90
34766;DHT22;20984;43.508;1.504;2023-01-15T09:50:15;8.90;99.90
34766;DHT22;20984;43.508;1.504;2023-01-15T09:55:24;8.90;99.90
34766;DHT22;20984;43.508;1.504;2023-01-15T09:57:54;8.90;99.90
34766;DHT22;20984;43.508;1.504;2023-01-15T10:00:24;8.80;99.90
34766;DHT22;20984;43.508;1.504;2023-01-15T10:03:04;8.70;99.90
34766;DHT22;20984;43.508;1.504;2023-01-15T10:05:39;8.70;99.90
34766;DHT22;20984;43.508;1.504;2023-01-15T10:08:24;8.50;99.90
34766;DHT22;20984;43.508;1.504;2023-01-15T10:11:00;8.40;99.90
34766;DHT22;20984;43.508;1.504;2023-01-15T10:13:49;8.30;99.90
34766;DHT22;20984;43.508;1.504;2023-01-15T10:16:28;8.20;99.90
34766;DHT22;20984;43.508;1.504;2023-01-15T10:18:56;8.10;99.90
34766;DHT22;20984;43.508;1.504;2023-01-15T10:24:27;8.00;99.90
34766;DHT22;20984;43.508;1.504;2023-01-15T10:26:56;7.90;99.90
34766;DHT22;20984;43.508;1.504;2023-01-15T10:29:33;7.80;99.90
34766;DHT22;20984;43.508;1.504;2023-01-15T10:43:18;7.60;99.90
34766;DHT22;20984;43.508;1.504;2023-01-15T10:46:01;7.60;99.90
34766;DHT22;20984;43.508;1.504;2023-01-15T10:48:33;7.60;99.90
34766;DHT22;20984;43.508;1.504;2023-01-15T10:51:06;7.60;99.90
34766;DHT22;20984;43.508;1.504;2023-01-15T10:53:50;7.60;99.90
34766;DHT22;20984;43.508;1.504;2023-01-15T10:56:40;7.70;99.90
34766;DHT22;20984;43.508;1.504;2023-01-15T11:01:36;7.80;99.90
34766;DHT22;20984;43.508;1.504;2023-01-15T11:04:03;7.90;99.90
34766;DHT22;20984;43.508;1.504;2023-01-15T11:06:30;8.00;99.90
34766;DHT22;20984;43.508;1.504;2023-01-15T11:08:57;8.10;99.90
34766;DHT22;20984;43.508;1.504;2023-01-15T11:14:38;8.10;99.90
34766;DHT22;20984;43.508;1.504;2023-01-15T11:17:43;8.20;99.90
34766;DHT22;20984;43.508;1.504;2023-01-15T11:20:31;8.20;99.90
34766;DHT22;20984;43.508;1.504;2023-01-15T11:23:09;8.30;99.90
34766;DHT22;20984;43.508;1.504;2023-01-15T11:25:37;8.40;99.90
34766;DHT22;20984;43.508;1.504;2023-01-15T11:28:09;8.40;99.90
34766;DHT22;20984;43.508;1.504;2023-01-15T11:30:40;8.50;99.90
34766;DHT22;20984;43.508;1.504;2023-01-15T11:33:20;8.60;99.90
34766;DHT22;20984;43.508;1.504;2023-01-15T11:35:52;8.70;99.90
34766;DHT22;20984;43.508;1.504;2023-01-15T11:38:23;8.90;99.90
34766;DHT22;20984;43.508;1.504;2023-01-15T11:40:59;8.80;99.90
34766;DHT22;20984;43.508;1.504;2023-01-15T11:43:28;8.90;99.90
34766;DHT22;20984;43.508;1.504;2023-01-15T11:49:08;8.90;99.90
34766;DHT22;20984;43.508;1.504;2023-01-15T11:51:55;9.00;99.90
34766;DHT22;20984;43.508;1.504;2023-01-15T11:54:23;9.10;99.90
34766;DHT22;20984;43.508;1.504;2023-01-15T11:56:50;9.10;99.90
34766;DHT22;20984;43.508;1.504;2023-01-15T11:59:17;9.20;99.90
34766;DHT22;20984;43.508;1.504;2023-01-15T12:04:36;9.20;99.90
34766;DHT22;20984;43.508;1.504;2023-01-15T12:07:04;9.30;99.90
34766;DHT22;20984;43.508;1.504;2023-01-15T12:12:31;9.30;99.90
34766;DHT22;20984;43.508;1.504;2023-01-15T12:17:58;9.30;99.90
34766;DHT22;20984;43.508;1.504;2023-01-15T12:20:45;9.40;99.90
34766;DHT22;20984;43.508;1.504;2023-01-15T12:24:08;9.40;99.90
34766;DHT22;20984;43.508;1.504;2023-01-15T12:34:28;9.50;99.90
34766;DHT22;20984;43.508;1.504;2023-01-15T12:37:04;9.40;99.90
34766;DHT22;20984;43.508;1.504;2023-01-15T12:39:32;9.40;99.90
34766;DHT22;20984;43.508;1.504;2023-01-15T12:42:05;9.30;99.90
34766;DHT22;20984;43.508;1.504;2023-01-15T12:44:53;9.40;99.90
34766;DHT22;20984;43.508;1.504;2023-01-15T12:47:31;9.40;99.90
34766;DHT22;20984;43.508;1.504;2023-01-15T12:52:48;9.50;99.90
34766;DHT22;20984;43.508;1.504;2023-01-15T12:55:20;9.50;99.90
34766;DHT22;20984;43.508;1.504;2023-01-15T12:57:48;9.60;99.90
34766;DHT22;20984;43.508;1.504;2023-01-15T13:00:19;9.60;99.90
34766;DHT22;20984;43.508;1.504;2023-01-15T13:10:49;9.40;99.90
34766;DHT22;20984;43.508;1.504;2023-01-15T13:13:34;9.40;99.90
34766;DHT22;20984;43.508;1.504;2023-01-15T13:16:20;9.30;99.90
34766;DHT22;20984;43.508;1.504;2023-01-15T13:22:18;9.30;99.90
34766;DHT22;20984;43.508;1.504;2023-01-15T13:25:12;9.30;99.90
34766;DHT22;20984;43.508;1.504;2023-01-15T13:27:59;9.30;99.90
34766;DHT22;20984;43.508;1.504;2023-01-15T13:36:10;9.40;99.90
34766;DHT22;20984;43.508;1.504;2023-01-15T13:38:41;9.40;99.90
34766;DHT22;20984;43.508;1.504;2023-01-15T13:41:08;9.40;99.90
34766;DHT22;20984;43.508;1.504;2023-01-15T13:43:41;9.30;99.90
34766;DHT22;20984;43.508;1.504;2023-01-15T13:46:11;9.40;99.90
34766;DHT22;20984;43.508;1.504;2023-01-15T13:48:45;9.10;99.90
34766;DHT22;20984;43.508;1.504;2023-01-15T13:51:31;8.70;99.90
34766;DHT22;20984;43.508;1.504;2023-01-15T13:53:58;8.40;99.90
34766;DHT22;20984;43.508;1.504;2023-01-15T13:56:34;8.20;99.90
34766;DHT22;20984;43.508;1.504;2023-01-15T13:59:37;8.10;99.90
34766;DHT22;20984;43.508;1.504;2023-01-15T14:01:51;7.90;99.90
34766;DHT22;20984;43.508;1.504;2023-01-15T14:04:30;7.70;99.90
34766;DHT22;20984;43.508;1.504;2023-01-15T14:06:57;7.40;99.90
34766;DHT22;20984;43.508;1.504;2023-01-15T14:14:55;6.70;99.90
34766;DHT22;20984;43.508;1.504;2023-01-15T14:28:27;6.80;99.90
34766;DHT22;20984;43.508;1.504;2023-01-15T14:36:31;6.90;99.90
34766;DHT22;20984;43.508;1.504;2023-01-15T14:39:00;6.90;99.90
34766;DHT22;20984;43.508;1.504;2023-01-15T14:41:30;7.00;99.90
34766;DHT22;20984;43.508;1.504;2023-01-15T14:43:58;7.00;99.90
34766;DHT22;20984;43.508;1.504;2023-01-15T14:46:26;7.10;99.90
34766;DHT22;20984;43.508;1.504;2023-01-15T14:48:53;7.10;99.90
34766;DHT22;20984;43.508;1.504;2023-01-15T14:51:31;7.10;99.90
34766;DHT22;20984;43.508;1.504;2023-01-15T14:53:59;7.10;99.90
34766;DHT22;20984;43.508;1.504;2023-01-15T14:57:05;7.10;99.90
34766;DHT22;20984;43.508;1.504;2023-01-15T14:59:35;7.10;99.90
34766;DHT22;20984;43.508;1.504;2023-01-15T15:02:36;7.00;99.90
34766;DHT22;20984;43.508;1.504;2023-01-15T15:05:02;7.00;99.90
34766;DHT22;20984;43.508;1.504;2023-01-15T15:07:39;7.00;99.90
34766;DHT22;20984;43.508;1.504;2023-01-15T15:10:19;6.90;99.90
34766;DHT22;20984;43.508;1.504;2023-01-15T15:13:02;6.90;99.90
34766;DHT22;20984;43.508;1.504;2023-01-15T15:15:47;6.80;99.90
34766;DHT22;20984;43.508;1.504;2023-01-15T15:18:30;6.90;99.90
34766;DHT22;20984;43.508;1.504;2023-01-15T15:21:11;6.90;99.90
34766;DHT22;20984;43.508;1.504;2023-01-15T15:26:27;6.90;99.90
34766;DHT22;20984;43.508;1.504;2023-01-15T15:28:58;6.90;99.90
34766;DHT22;20984;43.508;1.504;2023-01-15T15:31:24;6.90;99.90
34766;DHT22;20984;43.508;1.504;2023-01-15T15:33:55;6.90;99.90
34766;DHT22;20984;43.508;1.504;2023-01-15T15:36:27;6.80;99.90
34766;DHT22;20984;43.508;1.504;2023-01-15T15:38:57;6.70;99.90
34766;DHT22;20984;43.508;1.504;2023-01-15T15:41:26;6.70;99.90
34766;DHT22;20984;43.508;1.504;2023-01-15T15:44:41;6.60;99.90
34766;DHT22;20984;43.508;1.504;2023-01-15T15:47:37;6.60;99.90
34766;DHT22;20984;43.508;1.504;2023-01-15T15:50:26;6.60;99.90
34766;DHT22;20984;43.508;1.504;2023-01-15T15:52:54;6.50;99.90
34766;DHT22;20984;43.508;1.504;2023-01-15T15:55:21;6.50;99.90
34766;DHT22;20984;43.508;1.504;2023-01-15T15:57:59;6.40;99.90
34766;DHT22;20984;43.508;1.504;2023-01-15T16:00:37;6.40;99.90
34766;DHT22;20984;43.508;1.504;2023-01-15T16:03:06;6.40;99.90
34766;DHT22;20984;43.508;1.504;2023-01-15T16:05:35;6.30;99.90
34766;DHT22;20984;43.508;1.504;2023-01-15T16:08:18;6.30;99.90
34766;DHT22;20984;43.508;1.504;2023-01-15T16:10:53;6.30;99.90
34766;DHT22;20984;43.508;1.504;2023-01-15T16:13:30;6.30;99.90
34766;DHT22;20984;43.508;1.504;2023-01-15T16:15:58;6.30;99.90
34766;DHT22;20984;43.508;1.504;2023-01-15T16:18:25;6.20;99.90
34766;DHT22;20984;43.508;1.504;2023-01-15T16:20:52;6.20;99.90
34766;DHT22;20984;43.508;1.504;2023-01-15T16:23:23;6.20;99.90
34766;DHT22;20984;43.508;1.504;2023-01-15T16:28:36;6.20;99.90
34766;DHT22;20984;43.508;1.504;2023-01-15T16:31:04;6.20;99.90
34766;DHT22;20984;43.508;1.504;2023-01-15T16:33:30;6.20;99.90
34766;DHT22;20984;43.508;1.504;2023-01-15T16:35:57;6.20;99.90
34766;DHT22;20984;43.508;1.504;2023-01-15T16:38:23;6.00;99.90
34766;DHT22;20984;43.508;1.504;2023-01-15T16:40:49;5.90;99.90
34766;DHT22;20984;43.508;1.504;2023-01-15T16:43:21;5.80;99.90
34766;DHT22;20984;43.508;1.504;2023-01-15T16:46:06;5.70;99.90
34766;DHT22;20984;43.508;1.504;2023-01-15T16:48:40;5.70;99.90
34766;DHT22;20984;43.508;1.504;2023-01-15T16:51:31;5.60;99.90
34766;DHT22;20984;43.508;1.504;2023-01-15T16:54:01;5.60;99.90
34766;DHT22;20984;43.508;1.504;2023-01-15T16:59:04;5.50;99.90
34766;DHT22;20984;43.508;1.504;2023-01-15T17:01:41;5.50;99.90
34766;DHT22;20984;43.508;1.504;2023-01-15T17:04:30;5.60;99.90
34766;DHT22;20984;43.508;1.504;2023-01-15T17:07:07;5.70;99.90
34766;DHT22;20984;43.508;1.504;2023-01-15T17:09:57;5.90;99.90
34766;DHT22;20984;43.508;1.504;2023-01-15T17:14:53;6.10;99.90
34766;DHT22;20984;43.508;1.504;2023-01-15T17:19:51;6.20;99.90
34766;DHT22;20984;43.508;1.504;2023-01-15T17:22:29;6.20;99.90
34766;DHT22;20984;43.508;1.504;2023-01-15T17:24:57;6.20;99.90
34766;DHT22;20984;43.508;1.504;2023-01-15T17:27:25;6.20;99.90
34766;DHT22;20984;43.508;1.504;2023-01-15T17:29:51;6.20;99.90
34766;DHT22;20984;43.508;1.504;2023-01-15T17:32:27;6.10;99.90
34766;DHT22;20984;43.508;1.504;2023-01-15T17:34:54;6.00;99.90
34766;DHT22;20984;43.508;1.504;2023-01-15T17:37:20;5.90;99.90
34766;DHT22;20984;43.508;1.504;2023-01-15T17:39:45;5.80;99.90
34766;DHT22;20984;43.508;1.504;2023-01-15T17:42:13;5.60;99.90
34766;DHT22;20984;43.508;1.504;2023-01-15T17:44:39;5.40;99.90
34766;DHT22;20984;43.508;1.504;2023-01-15T17:47:05;5.30;99.90
34766;DHT22;20984;43.508;1.504;2023-01-15T17:49:30;5.10;99.90
34766;DHT22;20984;43.508;1.504;2023-01-15T17:51:57;5.00;99.90
34766;DHT22;20984;43.508;1.504;2023-01-15T17:54:22;5.00;99.90
34766;DHT22;20984;43.508;1.504;2023-01-15T17:57:07;4.90;99.90
34766;DHT22;20984;43.508;1.504;2023-01-15T17:59:51;4.80;99.90
34766;DHT22;20984;43.508;1.504;2023-01-15T18:02:35;4.80;99.90
34766;DHT22;20984;43.508;1.504;2023-01-15T18:05:20;4.90;99.90
34766;DHT22;20984;43.508;1.504;2023-01-15T18:07:54;5.10;99.90
34766;DHT22;20984;43.508;1.504;2023-01-15T18:10:23;5.30;99.90
34766;DHT22;20984;43.508;1.504;2023-01-15T18:12:49;5.40;99.90